Airfield :
LOGIN :

Register | Disclaimer

   EN    FR    IT 

 










Legend :    VFR   Marginal VFR   IFR   Intensive IFR   Very Intensive IFR
Visi :
Ceiling :
>= 8 km
>= 3000ft
5 to 8 km
1000 to 3000 ft
1500m to 5 km
500 to 1000 ft
800 to 1500m
200 to 500 ft
< 800m
< 200 ft
Symbols :   Thunderstorms  Fog  Heavy snow  Heavy precipitations  Wind > 20 kt
SIGMETs :     Misc.  Thunderstorms  Icing  Turbulence  Mountain Waves  Volcanic Ashes







- Airport Elevation : 122 ft
- IATA code : TXL


EDDT - Berlin Tegel Int.

CURRENT METAR :
  • 242150Z 28005KT 9999 -DZ BKN006 BKN030 14/13 Q1018

EXPIRED METARs :
  • 242120Z 27005KT 240V300 9999 -DZ BKN006 BKN017 14/13 Q1018 TEMPO BKN015
  • 242050Z 27004KT 240V330 9999 BKN008 BKN022 13/13 Q1018 TEMPO BKN015
  • 242020Z 28005KT 250V320 9999 BKN009 BKN029 13/13 Q1018 TEMPO BKN015
  • 241950Z 28005KT 9999 BKN009 BKN033 13/13 Q1018 TEMPO BKN015
  • 241920Z 28005KT 9999 BKN009 BKN030 13/13 Q1018 TEMPO BKN015

TAF AMD TAF EDDT
Valid from the 24 at 19:00 until the 25 at 18:00 UTC


241912Z 2419/2518 27005KT 9999 BKN015
TEMPO 2419/2501 BKN007
PROB30
TEMPO 2501/2507 0500 FG BKN001
BECMG 2507/2509 28010KT
No reported NOTAMs for that airfield.



MET'MAP, your aeronautical weather chart ! - Copyright ORBIFLY December 2007 - Disclaimer

ORBIFLY MET'MAP TEAM :

Programming & Development : Alexandra Zaïnal
Concept & Development : Baudouin d'Aumeries
Co-Development & Prog : Marc-Olivier Méhu
Technical & hardware support : Manuel Goepfert

Contact : metmap@orbifly.com




SOURCES & CREDITS :

   NOAA